This is the latest recevied weather packets stored in our database for station/object EA3CH. If no packets are shown the sender has not sent any weather packets the latest 10 day(s).
| Time | Temp. | Humidity | Pressure | Rain* | Wind** | Luminosity | Snow |
|---|---|---|---|---|---|---|---|
| 1787859904 | 23.89° C | 69% | 1015.1 hPa | 0 mm | - | 0 W/m² | - |
| 1787859004 | 23.89° C | 68% | 1014.2 hPa | 0 mm | - | 0 W/m² | - |
| 1787858103 | 24.44° C | 68% | 1014.4 hPa | 0 mm | - | 0 W/m² | - |
| 1787857214 | 24.44° C | 59% | 1014.1 hPa | 0 mm | - | 0 W/m² | - |
| 1787857204 | 24.44° C | 68% | 1014.2 hPa | 0 mm | - | 0 W/m² | - |
| 1787856305 | 24.44° C | 58% | 1013.8 hPa | 0 mm | - | 0 W/m² | - |
| 1787856304 | 24.44° C | 67% | 1014 hPa | 0 mm | - | 0 W/m² | - |
| 1787855405 | 25° C | 57% | 1013.8 hPa | 0 mm | - | 0 W/m² | - |
| 1787855404 | 25° C | 65% | 1014 hPa | 0 mm | - | 0 W/m² | - |
| 1787854505 | 25.56° C | 56% | 1013.8 hPa | 0 mm | - | 0 W/m² | - |
| 1787854504 | 25° C | 65% | 1014 hPa | 0 mm | - | 0 W/m² | - |
| 1787853604 | 25.56° C | 65% | 1013.9 hPa | 0 mm | - | 0 W/m² | - |
| 1787852705 | 26.11° C | 56% | 1013.9 hPa | 0 mm | - | 0 W/m² | - |
| 1787852703 | 25.56° C | 65% | 1014.1 hPa | 0 mm | - | 0 W/m² | - |
| 1787851805 | 26.67° C | 56% | 1013.8 hPa | 0 mm | - | 0 W/m² | - |
| 1787851804 | 26.11° C | 65% | 1013.9 hPa | 0 mm | - | 0 W/m² | - |
| 1787850905 | 26.67° C | 62% | 1014.3 hPa | 0 mm | - | 0 W/m² | - |
| 1787850005 | 27.78° C | 52% | 1013.6 hPa | 0 mm | - | 0 W/m² | - |
| 1787850004 | 27.78° C | 61% | 1013.9 hPa | 0 mm | - | 0 W/m² | - |
| 1787849103 | 28.89° C | 57% | 1013.7 hPa | 0 mm | - | 0 W/m² | - |
| 1787848204 | 29.44° C | 58% | 1013.6 hPa | 0 mm | - | 0 W/m² | - |
| 1787847304 | 30° C | 54% | 1013.6 hPa | 0 mm | - | 0 W/m² | - |
| 1787846408 | 31.67° C | 35% | 1013.3 hPa | 0 mm | - | 0 W/m² | - |
| 1787846404 | 31.67° C | 44% | 1013.6 hPa | 0 mm | - | 0 W/m² | - |
| 1787845505 | 31.67° C | 39% | 1013.6 hPa | 0 mm | - | 0 W/m² | - |
* Rain latest hour (hover to see other rain measurements)
** Current wind speed in m/s (hover to see current wind gust speed)